createdAt,value
2019-02-21T00:00:45.311Z,21.53
2019-02-21T00:03:17.930Z,19.03
2019-02-21T00:05:50.495Z,19.60
2019-02-21T00:08:21.712Z,18.83
2019-02-21T00:10:53.168Z,22.27
2019-02-21T00:13:24.195Z,22.60
2019-02-21T00:15:55.428Z,20.70
2019-02-21T00:18:27.307Z,19.77
2019-02-21T00:20:58.480Z,23.40
2019-02-21T00:23:29.639Z,20.93
2019-02-21T00:26:00.820Z,19.40
2019-02-21T00:28:32.036Z,20.53
2019-02-21T00:31:03.470Z,19.50
2019-02-21T00:33:34.725Z,18.90
2019-02-21T00:36:07.227Z,22.43
2019-02-21T00:38:38.386Z,20.37
2019-02-21T00:41:10.612Z,16.73
2019-02-21T00:43:41.837Z,20.13
2019-02-21T00:46:12.851Z,17.07
2019-02-21T00:48:43.771Z,21.87
2019-02-21T00:51:14.678Z,18.30
2019-02-21T00:53:45.625Z,19.60
2019-02-21T00:56:16.527Z,16.83
2019-02-21T00:58:47.451Z,18.40
2019-02-21T01:01:20.782Z,16.00
2019-02-21T01:03:51.490Z,17.80
2019-02-21T01:06:22.648Z,19.83
2019-02-21T01:08:54.066Z,17.30
2019-02-21T01:11:24.975Z,17.73
2019-02-21T01:13:55.891Z,16.93
2019-02-21T01:16:27.055Z,16.97
2019-02-21T01:18:58.207Z,22.07
2019-02-21T01:21:29.439Z,21.20
2019-02-21T01:24:00.874Z,21.67
2019-02-21T01:26:32.011Z,20.13
2019-02-21T01:29:03.244Z,17.80
2019-02-21T01:31:34.399Z,21.77
2019-02-21T01:34:05.325Z,20.90
2019-02-21T01:36:36.472Z,25.00
2019-02-21T01:39:08.211Z,21.70
2019-02-21T01:41:39.804Z,20.40
2019-02-21T01:44:10.958Z,21.70
2019-02-21T01:46:42.100Z,21.50
2019-02-21T01:49:13.268Z,23.80
2019-02-21T01:51:44.427Z,22.50
2019-02-21T01:54:15.322Z,25.70
2019-02-21T01:56:46.227Z,22.73
2019-02-21T01:59:17.387Z,18.57
2019-02-21T02:01:48.519Z,24.53
2019-02-21T02:04:20.023Z,23.73
2019-02-21T02:06:51.276Z,22.93
2019-02-21T02:09:22.515Z,24.27
2019-02-21T02:11:53.664Z,23.47
2019-02-21T02:14:25.025Z,24.30
2019-02-21T02:16:56.662Z,24.90
2019-02-21T02:19:28.388Z,21.67
2019-02-21T02:21:59.623Z,23.10
2019-02-21T02:24:30.779Z,27.10
2019-02-21T02:27:02.025Z,24.67
2019-02-21T02:29:33.175Z,26.80
2019-02-21T02:32:04.312Z,26.63
2019-02-21T02:34:35.647Z,23.63
2019-02-21T02:37:06.612Z,28.33
2019-02-21T02:39:37.846Z,24.93
2019-02-21T02:42:10.603Z,22.97
2019-02-21T02:44:41.826Z,23.87
2019-02-21T02:47:12.972Z,24.17
2019-02-21T02:49:45.086Z,25.03
2019-02-21T02:52:15.986Z,25.27
2019-02-21T02:54:47.420Z,26.67
2019-02-21T02:57:18.390Z,24.20
2019-02-21T02:59:49.572Z,25.53
2019-02-21T03:02:20.571Z,27.17
2019-02-21T03:04:51.573Z,26.90
2019-02-21T03:07:22.810Z,26.50
2019-02-21T03:09:54.035Z,28.07
2019-02-21T03:12:24.966Z,26.73
2019-02-21T03:14:55.877Z,26.47
2019-02-21T03:17:27.051Z,30.83
2019-02-21T03:19:59.723Z,28.40
2019-02-21T03:22:30.623Z,23.70
2019-02-21T03:25:01.817Z,28.43
2019-02-21T03:27:32.736Z,23.97
2019-02-21T03:30:04.665Z,25.70
2019-02-21T03:32:35.826Z,29.60
2019-02-21T03:35:07.468Z,27.50
2019-02-21T03:37:38.614Z,25.37
2019-02-21T03:40:10.239Z,27.73
2019-02-21T03:42:41.386Z,27.40
2019-02-21T03:45:13.432Z,26.30
2019-02-21T03:47:44.744Z,29.73
2019-02-21T03:50:15.721Z,25.07
2019-02-21T03:52:46.628Z,24.13
2019-02-21T03:55:17.768Z,28.80
2019-02-21T03:57:48.997Z,26.90
2019-02-21T04:00:19.975Z,27.97
2019-02-21T04:02:51.023Z,27.97
2019-02-21T04:05:22.203Z,28.27
2019-02-21T04:07:53.346Z,30.00
2019-02-21T04:10:24.507Z,28.47
2019-02-21T04:12:55.757Z,30.07
2019-02-21T04:15:27.040Z,31.03
2019-02-21T04:17:58.188Z,28.93
2019-02-21T04:20:29.442Z,34.77
2019-02-21T04:23:00.595Z,30.57
2019-02-21T04:25:31.518Z,27.67
2019-02-21T04:28:02.689Z,31.27
2019-02-21T04:30:34.119Z,29.47
2019-02-21T04:33:05.287Z,32.03
2019-02-21T04:35:36.216Z,28.27
2019-02-21T04:38:07.419Z,29.03
2019-02-21T04:40:38.824Z,32.60
2019-02-21T04:43:10.245Z,30.57
2019-02-21T04:45:41.397Z,29.57
2019-02-21T04:48:12.567Z,26.93
2019-02-21T04:50:43.769Z,29.67
2019-02-21T04:53:15.026Z,26.83
2019-02-21T04:55:46.255Z,27.23
2019-02-21T04:58:17.409Z,30.07
2019-02-21T05:00:48.333Z,23.93
2019-02-21T05:03:19.484Z,28.87
2019-02-21T05:05:50.683Z,27.73
2019-02-21T05:08:21.848Z,28.70
2019-02-21T05:10:52.764Z,29.87
2019-02-21T05:13:23.705Z,27.77
2019-02-21T05:15:54.872Z,28.90
2019-02-21T05:18:26.020Z,28.43
2019-02-21T05:20:57.272Z,28.00
2019-02-21T05:23:28.459Z,27.13
2019-02-21T05:25:59.611Z,28.23
2019-02-21T05:28:32.005Z,24.20
2019-02-21T05:31:11.283Z,26.83
2019-02-21T05:33:56.106Z,26.37
2019-02-21T05:36:44.656Z,27.23
2019-02-21T05:39:34.147Z,28.83
2019-02-21T05:42:23.943Z,26.20
2019-02-21T05:45:20.232Z,27.07
2019-02-21T05:48:01.332Z,29.03
2019-02-21T05:50:46.451Z,32.27
2019-02-21T05:53:32.186Z,26.17
2019-02-21T05:56:13.647Z,25.47
2019-02-21T05:58:51.482Z,27.80
2019-02-21T06:01:40.641Z,33.17
2019-02-21T06:04:32.383Z,27.87
2019-02-21T06:07:19.549Z,29.03
2019-02-21T06:09:56.574Z,31.30
2019-02-21T06:12:34.797Z,28.17
2019-02-21T06:15:28.699Z,32.67
2019-02-21T06:18:08.695Z,35.20
2019-02-21T06:21:04.825Z,31.97
2019-02-21T06:23:56.145Z,29.97
2019-02-21T06:26:32.895Z,31.70
2019-02-21T06:29:06.801Z,31.50
2019-02-21T06:31:37.956Z,31.87
2019-02-21T06:34:09.825Z,33.10
2019-02-21T06:36:40.988Z,35.17
2019-02-21T06:39:12.159Z,30.20
2019-02-21T06:41:43.432Z,33.90
2019-02-21T06:44:14.327Z,31.37
2019-02-21T06:46:45.488Z,33.33
2019-02-21T06:49:16.910Z,30.27
2019-02-21T06:51:48.063Z,28.77
2019-02-21T06:54:18.997Z,37.47
2019-02-21T06:56:50.665Z,36.43
2019-02-21T06:59:23.604Z,34.23
2019-02-21T07:01:54.702Z,33.97
2019-02-21T07:04:25.864Z,26.43
2019-02-21T07:06:56.992Z,32.20
2019-02-21T07:09:27.992Z,31.57
2019-02-21T07:11:59.455Z,30.90
2019-02-21T07:14:30.718Z,32.97
2019-02-21T07:17:02.094Z,33.23
2019-02-21T07:19:33.401Z,31.13
2019-02-21T07:22:06.283Z,35.90
2019-02-21T07:24:38.692Z,31.77
2019-02-21T07:27:10.183Z,32.40
2019-02-21T07:29:42.668Z,33.33
2019-02-21T07:32:14.899Z,35.50
2019-02-21T07:34:45.818Z,35.90
2019-02-21T07:37:18.846Z,33.83
2019-02-21T07:39:50.906Z,33.97
2019-02-21T07:42:22.584Z,38.27
2019-02-21T07:44:54.596Z,32.67
2019-02-21T07:47:26.160Z,38.80
2019-02-21T07:49:57.303Z,34.97
2019-02-21T07:52:28.496Z,37.67
2019-02-21T07:55:02.191Z,34.17
2019-02-21T07:57:32.611Z,37.57
2019-02-21T08:00:04.016Z,33.17
2019-02-21T08:02:35.171Z,37.17
2019-02-21T08:05:06.868Z,39.67
2019-02-21T08:07:38.083Z,35.17
2019-02-21T08:10:09.710Z,33.60
2019-02-21T08:12:41.296Z,35.17
2019-02-21T08:15:12.615Z,33.93
2019-02-21T08:17:43.773Z,34.00
2019-02-21T08:20:14.927Z,36.37
2019-02-21T08:22:46.073Z,33.80
2019-02-21T08:25:19.134Z,32.70
2019-02-21T08:27:49.829Z,37.37
2019-02-21T08:30:21.051Z,32.33
2019-02-21T08:33:14.287Z,31.97
2019-02-21T08:35:45.449Z,35.80
2019-02-21T08:38:16.856Z,31.97
2019-02-21T08:40:48.039Z,32.13
2019-02-21T08:43:19.184Z,39.57
2019-02-21T08:45:50.124Z,30.77
2019-02-21T08:48:21.027Z,33.50
2019-02-21T08:50:52.174Z,31.83
2019-02-21T08:53:23.415Z,36.10
2019-02-21T08:55:56.020Z,34.97
2019-02-21T08:58:27.368Z,34.00
2019-02-21T09:00:58.521Z,34.80
2019-02-21T09:03:29.495Z,33.33
2019-02-21T09:06:00.494Z,29.47
2019-02-21T09:08:35.049Z,32.73
2019-02-21T09:11:04.744Z,32.10
2019-02-21T09:13:35.904Z,34.40
2019-02-21T09:16:08.167Z,33.13
2019-02-21T09:18:40.708Z,31.07
2019-02-21T09:21:11.855Z,33.67
2019-02-21T09:23:44.543Z,34.57
2019-02-21T09:26:15.684Z,31.67
2019-02-21T09:28:47.097Z,33.70
2019-02-21T09:31:18.501Z,28.23
2019-02-21T09:33:49.674Z,32.17
2019-02-21T09:36:20.871Z,33.70
2019-02-21T09:38:52.016Z,33.57
2019-02-21T09:41:23.163Z,30.10
2019-02-21T09:43:54.387Z,28.00
2019-02-21T09:46:25.859Z,32.10
2019-02-21T09:48:56.774Z,29.93
2019-02-21T09:51:27.939Z,30.90
2019-02-21T09:54:00.891Z,30.70
2019-02-21T09:56:31.822Z,31.63
2019-02-21T09:59:03.007Z,29.93
2019-02-21T10:01:34.173Z,32.27
2019-02-21T10:04:05.178Z,27.70
2019-02-21T10:06:36.330Z,34.50
2019-02-21T10:09:07.507Z,28.47
2019-02-21T10:11:39.051Z,29.97
2019-02-21T10:14:10.483Z,28.53
2019-02-21T10:16:41.664Z,29.90
2019-02-21T10:19:12.682Z,29.40
2019-02-21T10:21:43.594Z,31.97
2019-02-21T10:24:14.767Z,33.57
2019-02-21T10:26:45.923Z,30.57
2019-02-21T10:29:17.377Z,28.90
2019-02-21T10:31:48.286Z,30.30
2019-02-21T10:34:21.701Z,28.00
2019-02-21T10:36:52.660Z,27.77
2019-02-21T10:39:23.659Z,26.20
2019-02-21T10:41:55.089Z,29.13
2019-02-21T10:44:27.376Z,26.60
2019-02-21T10:46:58.298Z,29.57
2019-02-21T10:49:29.227Z,27.80
2019-02-21T10:52:00.368Z,30.03
2019-02-21T10:54:32.598Z,25.23
2019-02-21T10:57:03.865Z,28.23
2019-02-21T10:59:45.901Z,27.40
2019-02-21T11:02:07.956Z,24.60
2019-02-21T11:04:42.004Z,27.90
2019-02-21T11:07:11.972Z,26.87
2019-02-21T11:09:43.142Z,26.90
2019-02-21T11:12:14.622Z,23.23
2019-02-21T11:14:47.807Z,20.07
2019-02-21T11:17:18.744Z,17.03
2019-02-21T11:19:50.155Z,21.23
2019-02-21T11:22:21.388Z,17.03
2019-02-21T11:24:52.387Z,17.17
2019-02-21T11:27:23.532Z,15.50
2019-02-21T11:29:54.968Z,19.27
2019-02-21T11:32:26.111Z,22.93
2019-02-21T11:35:05.726Z,19.53
2019-02-21T11:37:30.412Z,15.33
2019-02-21T11:40:01.559Z,17.97
2019-02-21T11:42:33.787Z,19.10
2019-02-21T11:45:05.551Z,12.63
2019-02-21T11:47:36.475Z,20.73
2019-02-21T11:50:08.398Z,19.10
2019-02-21T11:52:39.607Z,14.17
2019-02-21T11:55:12.359Z,15.60
2019-02-21T11:57:43.519Z,17.83
2019-02-21T12:00:19.988Z,16.90
2019-02-21T12:02:51.191Z,15.87
2019-02-21T12:05:30.509Z,14.10
2019-02-21T12:07:55.343Z,16.60
2019-02-21T12:10:26.495Z,15.30
2019-02-21T12:12:57.481Z,12.63
2019-02-21T12:15:28.724Z,16.03
2019-02-21T12:18:00.081Z,13.70
2019-02-21T12:20:31.388Z,18.67
2019-02-21T12:23:02.315Z,21.50
2019-02-21T12:25:33.227Z,17.47
2019-02-21T12:28:04.541Z,18.57
2019-02-21T12:30:35.797Z,15.47
2019-02-21T12:33:07.012Z,17.43
2019-02-21T12:35:39.831Z,21.47
2019-02-21T12:38:11.065Z,19.93
2019-02-21T12:40:42.516Z,19.83
2019-02-21T12:43:14.823Z,21.13
2019-02-21T12:45:45.998Z,17.67
2019-02-21T12:48:17.187Z,18.20
2019-02-21T12:50:48.324Z,16.77
2019-02-21T12:53:20.287Z,15.83
2019-02-21T12:55:51.595Z,18.57
2019-02-21T12:58:22.751Z,19.67
2019-02-21T13:00:53.920Z,17.70
2019-02-21T13:03:24.823Z,18.07
2019-02-21T13:05:55.763Z,15.80
2019-02-21T13:08:27.178Z,20.43
2019-02-21T13:10:58.096Z,18.33
2019-02-21T13:13:29.277Z,20.73
2019-02-21T13:16:00.453Z,20.37
2019-02-21T13:18:31.699Z,19.83
2019-02-21T13:21:02.919Z,15.90
2019-02-21T13:23:33.835Z,23.53
2019-02-21T13:26:05.129Z,21.70
2019-02-21T13:28:36.304Z,21.27
2019-02-21T13:31:07.996Z,19.67
2019-02-21T13:33:38.913Z,17.63
2019-02-21T13:36:09.849Z,20.90
2019-02-21T13:38:41.048Z,16.40
2019-02-21T13:41:12.000Z,23.27
2019-02-21T13:43:43.543Z,22.67
2019-02-21T13:46:14.916Z,22.37
2019-02-21T13:48:46.083Z,25.27
2019-02-21T13:51:17.254Z,22.80
2019-02-21T13:53:48.781Z,22.13
2019-02-21T13:56:19.999Z,25.13
2019-02-21T13:58:50.990Z,23.07
2019-02-21T14:01:23.756Z,25.00
2019-02-21T14:03:56.663Z,26.90
2019-02-21T14:06:28.164Z,24.77
2019-02-21T14:08:59.327Z,26.37
2019-02-21T14:11:30.870Z,25.47
2019-02-21T14:14:02.387Z,22.83
2019-02-21T14:16:33.562Z,27.73
2019-02-21T14:19:04.727Z,24.80
2019-02-21T14:21:36.167Z,23.53
2019-02-21T14:24:07.360Z,26.37
2019-02-21T14:26:38.787Z,26.87
2019-02-21T14:29:09.947Z,25.03
2019-02-21T14:31:40.879Z,25.70
2019-02-21T14:34:12.019Z,23.23
2019-02-21T14:36:43.220Z,21.57
2019-02-21T14:39:14.795Z,24.83
2019-02-21T14:41:46.007Z,24.70
2019-02-21T14:44:17.197Z,26.43
2019-02-21T14:46:50.187Z,22.97
2019-02-21T14:49:20.713Z,26.83
2019-02-21T14:51:51.985Z,26.83
2019-02-21T14:54:22.891Z,25.80
2019-02-21T14:56:54.056Z,28.43
2019-02-21T14:59:27.204Z,26.37
2019-02-21T15:02:02.007Z,25.30
2019-02-21T15:04:33.293Z,22.33
2019-02-21T15:07:06.517Z,22.33
2019-02-21T15:09:37.323Z,23.43
2019-02-21T15:12:08.222Z,22.23
2019-02-21T15:14:39.649Z,23.43
2019-02-21T15:17:10.787Z,26.17
2019-02-21T15:19:42.267Z,23.37
2019-02-21T15:22:13.942Z,26.70
2019-02-21T15:24:45.653Z,17.93
2019-02-21T15:27:17.046Z,13.73
2019-02-21T15:29:48.173Z,16.57
2019-02-21T15:32:19.344Z,9.37
2019-02-21T15:34:50.307Z,11.17
2019-02-21T15:37:21.787Z,9.23
2019-02-21T15:39:52.943Z,11.40
2019-02-21T15:42:23.974Z,11.67
2019-02-21T15:44:55.099Z,10.13
2019-02-21T15:47:26.034Z,10.93
2019-02-21T15:49:57.769Z,10.50
2019-02-21T15:52:28.921Z,9.57
2019-02-21T15:55:11.816Z,9.37
2019-02-21T15:57:33.649Z,10.50
2019-02-21T16:00:05.705Z,12.07
2019-02-21T16:02:37.207Z,14.00
2019-02-21T16:05:08.371Z,14.40
2019-02-21T16:07:39.558Z,10.93
2019-02-21T16:10:12.739Z,12.40
2019-02-21T16:12:44.491Z,15.60
2019-02-21T16:15:16.751Z,11.20
2019-02-21T16:17:48.447Z,13.33
2019-02-21T16:20:21.041Z,14.17
2019-02-21T16:22:52.058Z,15.77
2019-02-21T16:25:23.083Z,13.73
2019-02-21T16:27:55.491Z,14.30
2019-02-21T16:30:26.723Z,14.63
2019-02-21T16:32:58.159Z,15.07
2019-02-21T16:35:29.315Z,14.33
2019-02-21T16:38:00.607Z,15.30
2019-02-21T16:40:31.760Z,17.17
2019-02-21T16:43:02.699Z,18.03
2019-02-21T16:45:43.011Z,17.23
2019-02-21T16:48:06.703Z,18.60
2019-02-21T16:50:37.651Z,20.57
2019-02-21T16:53:08.811Z,20.13
2019-02-21T16:55:39.984Z,20.30
2019-02-21T16:58:10.910Z,23.03
2019-02-21T17:00:52.500Z,21.93
2019-02-21T17:03:14.891Z,21.80
2019-02-21T17:05:46.073Z,23.83
2019-02-21T17:08:17.212Z,24.43
2019-02-21T17:10:48.359Z,24.33
2019-02-21T17:13:19.508Z,25.90
2019-02-21T17:15:50.659Z,25.70
2019-02-21T17:18:21.849Z,24.50
2019-02-21T17:20:53.547Z,28.67
2019-02-21T17:23:24.775Z,29.40
2019-02-21T17:25:55.927Z,33.07
2019-02-21T17:28:27.359Z,29.13
2019-02-21T17:30:58.532Z,29.93
2019-02-21T17:33:29.691Z,31.37
2019-02-21T17:36:01.140Z,31.47
2019-02-21T17:38:33.266Z,32.87
2019-02-21T17:41:05.232Z,37.53
2019-02-21T17:43:36.631Z,33.67
2019-02-21T17:46:07.799Z,32.63
2019-02-21T17:48:39.146Z,38.33
2019-02-21T17:51:10.292Z,46.23
2019-02-21T17:53:41.724Z,37.17
2019-02-21T17:56:12.863Z,37.27
2019-02-21T17:58:44.043Z,41.70
2019-02-21T18:01:15.291Z,36.63
2019-02-21T18:03:46.428Z,38.23
2019-02-21T18:06:17.679Z,41.70
2019-02-21T18:08:48.923Z,42.27
2019-02-21T18:11:19.919Z,43.87
2019-02-21T18:13:51.448Z,44.07
2019-02-21T18:16:22.403Z,44.87
2019-02-21T18:18:53.807Z,45.03
2019-02-21T18:21:24.905Z,47.67
2019-02-21T18:23:56.058Z,53.90
2019-02-21T18:26:27.197Z,48.43
2019-02-21T18:28:58.397Z,51.53
2019-02-21T18:31:29.606Z,48.30
2019-02-21T18:34:00.863Z,49.67
2019-02-21T18:36:32.106Z,51.93
2019-02-21T18:39:04.631Z,49.47
2019-02-21T18:41:37.386Z,52.43
2019-02-21T18:44:08.567Z,52.13
2019-02-21T18:46:40.067Z,47.77
2019-02-21T18:49:11.365Z,56.37
2019-02-21T18:51:42.571Z,52.00
2019-02-21T18:54:13.756Z,58.47
2019-02-21T18:56:44.893Z,53.57
2019-02-21T18:59:16.111Z,52.27
2019-02-21T19:01:47.272Z,57.57
2019-02-21T19:04:18.411Z,58.47
2019-02-21T19:06:49.323Z,54.80
2019-02-21T19:09:20.523Z,59.37
2019-02-21T19:11:51.722Z,55.53
2019-02-21T19:14:23.328Z,55.67
2019-02-21T19:16:54.274Z,51.93
2019-02-21T19:19:25.461Z,54.77
2019-02-21T19:21:56.651Z,53.50
2019-02-21T19:24:27.571Z,54.23
2019-02-21T19:26:58.810Z,50.27
2019-02-21T19:29:30.658Z,50.67
2019-02-21T19:32:02.007Z,52.40
2019-02-21T19:34:32.975Z,52.37
2019-02-21T19:37:04.194Z,56.23
2019-02-21T19:39:35.590Z,53.93
2019-02-21T19:42:06.500Z,57.73
2019-02-21T19:44:37.648Z,55.73
2019-02-21T19:47:08.626Z,61.07
2019-02-21T19:49:39.523Z,51.37
2019-02-21T19:52:11.093Z,53.73
2019-02-21T19:54:42.575Z,56.93
2019-02-21T19:57:13.839Z,53.17
2019-02-21T19:59:44.738Z,49.07
2019-02-21T20:02:15.910Z,52.60
2019-02-21T20:04:47.114Z,50.50
2019-02-21T20:07:20.043Z,51.63
2019-02-21T20:09:51.484Z,56.73
2019-02-21T20:12:22.703Z,51.70
2019-02-21T20:14:53.690Z,52.70
2019-02-21T20:17:26.832Z,49.03
2019-02-21T20:19:58.018Z,52.93
2019-02-21T20:22:30.499Z,57.03
2019-02-21T20:25:01.765Z,56.37
2019-02-21T20:27:33.100Z,57.67
2019-02-21T20:30:06.535Z,54.53
2019-02-21T20:32:37.683Z,58.37
2019-02-21T20:35:08.844Z,51.90
2019-02-21T20:37:39.843Z,53.93
2019-02-21T20:40:11.136Z,62.33
2019-02-21T20:42:42.443Z,54.57
2019-02-21T20:45:13.510Z,56.07
2019-02-21T20:47:44.770Z,58.07
2019-02-21T20:50:16.124Z,55.73
2019-02-21T20:52:47.271Z,57.53
2019-02-21T20:55:18.175Z,61.10
2019-02-21T20:57:49.163Z,60.10
2019-02-21T21:00:20.444Z,59.83
2019-02-21T21:02:51.560Z,61.10
2019-02-21T21:05:22.989Z,66.57
2019-02-21T21:07:54.280Z,68.67
2019-02-21T21:10:25.464Z,58.50
2019-02-21T21:12:56.366Z,62.50
2019-02-21T21:15:39.376Z,65.90
2019-02-21T21:18:10.555Z,62.07
2019-02-21T21:20:41.471Z,65.93
2019-02-21T21:23:12.866Z,63.30
2019-02-21T21:25:43.771Z,64.80
2019-02-21T21:28:14.745Z,66.30
2019-02-21T21:30:45.976Z,66.27
2019-02-21T21:33:17.056Z,60.30
2019-02-21T21:35:48.267Z,56.30
2019-02-21T21:38:24.160Z,61.57
2019-02-21T21:40:52.387Z,65.43
2019-02-21T21:43:23.532Z,57.37
2019-02-21T21:45:54.725Z,63.90
2019-02-21T21:48:25.655Z,62.17
2019-02-21T21:50:56.635Z,61.40
2019-02-21T21:53:27.783Z,56.70
2019-02-21T21:55:59.039Z,66.50
2019-02-21T21:58:30.259Z,64.30
2019-02-21T22:01:01.769Z,61.10
2019-02-21T22:03:32.899Z,64.57
2019-02-21T22:06:06.271Z,63.70
2019-02-21T22:08:37.429Z,61.13
2019-02-21T22:11:09.625Z,60.27
2019-02-21T22:13:42.476Z,67.67
2019-02-21T22:16:13.451Z,61.83
2019-02-21T22:18:44.371Z,63.13
2019-02-21T22:21:16.500Z,63.23
2019-02-21T22:23:47.984Z,61.07
2019-02-21T22:26:19.160Z,67.63
2019-02-21T22:28:50.335Z,63.07
2019-02-21T22:31:21.576Z,67.27
2019-02-21T22:33:52.715Z,67.57
2019-02-21T22:36:23.867Z,70.80
2019-02-21T22:38:54.762Z,62.03
2019-02-21T22:41:28.113Z,64.73
2019-02-21T22:43:58.791Z,58.97
2019-02-21T22:46:32.342Z,58.90
2019-02-21T22:49:05.355Z,64.37
2019-02-21T22:51:36.523Z,62.03
2019-02-21T22:54:07.434Z,65.90
2019-02-21T22:56:38.586Z,70.00
2019-02-21T22:59:09.503Z,64.80
2019-02-21T23:01:43.272Z,69.17
2019-02-21T23:05:04.537Z,63.57
2019-02-21T23:08:00.207Z,69.00
2019-02-21T23:10:31.422Z,66.20
2019-02-21T23:13:02.951Z,80.80
2019-02-21T23:15:34.091Z,71.17
2019-02-21T23:18:05.333Z,64.63
2019-02-21T23:20:36.228Z,62.17
2019-02-21T23:23:07.531Z,72.60
2019-02-21T23:25:38.703Z,65.73
2019-02-21T23:28:09.863Z,69.70
2019-02-21T23:30:41.015Z,60.17
2019-02-21T23:33:12.183Z,65.90
2019-02-21T23:35:43.319Z,67.93
2019-02-21T23:38:14.668Z,73.40
2019-02-21T23:40:45.945Z,59.43
2019-02-21T23:43:16.857Z,57.17
2019-02-21T23:45:48.008Z,70.63
2019-02-21T23:48:19.160Z,66.77
2019-02-21T23:50:50.214Z,63.90
2019-02-21T23:53:21.391Z,62.43
2019-02-21T23:55:52.540Z,66.50
2019-02-21T23:58:23.778Z,68.57
